Time;durP1;ratioP1;P1;durP2;ratioP2;P2;SDS_P1;SDS_P2;PMS_P1;PMS_P2;Temp;Humidity;BMP_temperature;BMP_pressure;BME280_temperature;BME280_humidity;BME280_pressure;Samples;Min_cycle;Max_cycle;Signal;HPM_P1;HPM_P2
2022/04/19 00:01:58;;;;;;;14.00;9.10;;;;;;;2.81;64.28;96135.94;107618;1271;32673;-79
2022/04/19 00:04:29;;;;;;;14.30;8.80;;;;;;;2.79;64.45;96142.10;107767;1269;34365;-79
2022/04/19 00:07:03;;;;;;;15.60;9.40;;;;;;;2.78;64.32;96140.58;107753;1269;30698;-80
2022/04/19 00:09:36;;;;;;;12.40;8.50;;;;;;;2.79;64.29;96138.85;107753;1269;32104;-80
2022/04/19 00:12:09;;;;;;;15.40;8.80;;;;;;;2.82;64.10;96130.54;107734;1269;33163;-79
2022/04/19 00:14:40;;;;;;;11.90;7.70;;;;;;;2.86;64.06;96128.40;107681;1269;47738;-79
2022/04/19 00:17:11;;;;;;;12.00;7.10;;;;;;;2.90;64.24;96131.07;107744;1269;37376;-79
2022/04/19 00:19:42;;;;;;;12.80;7.50;;;;;;;2.93;63.95;96128.73;107711;1269;33783;-80
2022/04/19 00:22:17;;;;;;;12.10;7.20;;;;;;;2.96;63.66;96126.45;107776;1270;33018;-79
2022/04/19 00:24:52;;;;;;;12.30;7.30;;;;;;;3.01;63.72;96122.31;107847;1270;35959;-79
2022/04/19 00:27:23;;;;;;;13.10;7.80;;;;;;;3.03;63.80;96129.09;107774;1270;34165;-79
2022/04/19 00:29:54;;;;;;;8.70;6.30;;;;;;;3.06;63.74;96127.12;107654;1270;37501;-79
2022/04/19 00:32:27;;;;;;;11.30;5.80;;;;;;;3.07;63.24;96120.39;107692;1270;34738;-80
2022/04/19 00:35:00;;;;;;;9.50;6.10;;;;;;;3.13;62.31;96117.29;107861;1270;29788;-79
2022/04/19 00:37:31;;;;;;;9.60;6.40;;;;;;;3.16;62.40;96115.48;107877;1270;32865;-79
2022/04/19 00:40:02;;;;;;;13.00;6.50;;;;;;;3.15;62.40;96114.69;107708;1270;34321;-79
2022/04/19 00:42:34;;;;;;;9.50;6.30;;;;;;;3.15;62.32;96110.66;107794;1270;44395;-79
2022/04/19 00:45:07;;;;;;;12.80;7.10;;;;;;;3.15;61.94;96111.97;107745;1270;33724;-79
2022/04/19 00:47:39;;;;;;;9.90;6.90;;;;;;;3.17;62.19;96110.36;107742;1270;33199;-79
2022/04/19 00:50:10;;;;;;;10.00;6.50;;;;;;;3.15;62.14;96111.86;107744;1269;38185;-79
2022/04/19 00:52:43;;;;;;;10.60;6.60;;;;;;;3.16;62.15;96114.54;107775;1270;37238;-80
2022/04/19 00:55:14;;;;;;;10.20;6.30;;;;;;;3.13;61.79;96110.73;107810;1270;34136;-80
2022/04/19 00:57:46;;;;;;;9.50;6.00;;;;;;;3.12;61.46;96114.19;107755;1270;50308;-79
2022/04/19 01:00:20;;;;;;;9.80;5.90;;;;;;;3.14;61.70;96113.31;107851;1270;31847;-80
2022/04/19 01:02:51;;;;;;;7.00;4.80;;;;;;;3.14;62.03;96109.64;107771;1269;36198;-80
2022/04/19 01:05:21;;;;;;;11.00;6.80;;;;;;;3.13;61.79;96109.91;107694;1269;38678;-78
2022/04/19 01:07:52;;;;;;;11.70;6.70;;;;;;;3.11;62.27;96108.40;107806;1270;34251;-79
2022/04/19 01:10:23;;;;;;;10.00;6.50;;;;;;;3.09;62.39;96112.45;107782;1270;36846;-79
2022/04/19 01:15:44;;;;;;;10.70;5.90;;;;;;;3.06;62.30;96108.06;107617;1270;39395;-79
2022/04/19 01:18:23;;;;;;;11.50;6.10;;;;;;;3.08;61.59;96108.14;107745;1269;32605;-80
2022/04/19 01:20:54;;;;;;;7.10;4.80;;;;;;;3.12;61.50;96107.31;107694;1270;35647;-79
2022/04/19 01:23:26;;;;;;;8.90;5.10;;;;;;;3.12;61.55;96108.22;107703;1270;42474;-79
2022/04/19 01:25:57;;;;;;;7.10;4.20;;;;;;;3.13;61.37;96102.20;107698;1268;36969;-79
2022/04/19 01:28:29;;;;;;;8.50;4.60;;;;;;;3.15;61.26;96103.27;107668;1269;34770;-79
2022/04/19 01:31:01;;;;;;;7.10;4.70;;;;;;;3.16;61.59;96103.48;107767;1269;34042;-79
2022/04/19 01:33:33;;;;;;;5.50;3.70;;;;;;;3.14;61.84;96102.47;107737;1269;35377;-79
2022/04/19 01:36:04;;;;;;;8.50;4.70;;;;;;;3.11;62.58;96099.97;107788;1270;32703;-79
2022/04/19 01:38:34;;;;;;;7.70;4.30;;;;;;;3.06;62.58;96101.95;107838;1270;34753;-79
2022/04/19 01:41:05;;;;;;;7.40;4.60;;;;;;;3.03;63.37;96105.58;107790;1270;33958;-79
2022/04/19 01:43:41;;;;;;;8.20;4.60;;;;;;;2.97;63.93;96105.81;107844;1270;38553;-79
2022/04/19 01:46:12;;;;;;;10.10;5.70;;;;;;;2.92;63.91;96106.52;107805;1270;32975;-79
2022/04/19 01:48:43;;;;;;;9.80;5.10;;;;;;;2.91;63.80;96108.83;107620;1268;35613;-80
2022/04/19 01:51:16;;;;;;;9.60;5.20;;;;;;;2.91;63.90;96108.29;107729;1270;30502;-79
2022/04/19 01:53:46;;;;;;;9.60;5.10;;;;;;;2.90;63.55;96109.08;107845;1270;34175;-80
2022/04/19 01:56:17;;;;;;;9.00;5.00;;;;;;;2.90;63.77;96106.45;107660;1270;38185;-79
2022/04/19 01:58:49;;;;;;;8.20;4.60;;;;;;;2.92;63.84;96102.23;107654;1270;36402;-80
2022/04/19 02:01:22;;;;;;;11.20;5.20;;;;;;;2.92;63.97;96099.77;107754;1269;44333;-79
2022/04/19 02:03:53;;;;;;;7.10;4.70;;;;;;;2.90;64.18;96099.44;107779;1270;42467;-78
2022/04/19 02:06:27;;;;;;;7.20;4.30;;;;;;;2.85;64.42;96097.29;107773;1269;49104;-78
2022/04/19 02:09:00;;;;;;;8.40;4.90;;;;;;;2.83;64.60;96096.12;107807;1270;34559;-78
2022/04/19 02:11:30;;;;;;;9.00;4.50;;;;;;;2.83;64.76;96095.75;107740;1269;36277;-79
2022/04/19 02:14:03;;;;;;;8.40;4.80;;;;;;;2.80;65.01;96093.65;107790;1269;35637;-79
2022/04/19 02:16:34;;;;;;;9.40;4.40;;;;;;;2.76;65.11;96097.41;107761;1269;36413;-79
2022/04/19 02:19:05;;;;;;;8.40;5.20;;;;;;;2.74;65.54;96093.26;107741;1269;38255;-79
2022/04/19 02:21:38;;;;;;;9.60;5.70;;;;;;;2.70;65.67;96094.25;107738;1268;37223;-79
2022/04/19 02:24:09;;;;;;;9.00;4.70;;;;;;;2.65;65.96;96091.08;107815;1270;36921;-79
2022/04/19 02:26:42;;;;;;;9.40;5.00;;;;;;;2.57;66.53;96092.19;107800;1269;38926;-79
2022/04/19 02:29:16;;;;;;;9.40;5.70;;;;;;;2.49;66.75;96087.66;107765;1270;33975;-79
2022/04/19 02:31:49;;;;;;;10.30;5.50;;;;;;;2.46;66.76;96090.17;107798;1270;29448;-79
2022/04/19 02:34:21;;;;;;;10.10;6.20;;;;;;;2.44;67.03;96081.16;107813;1270;36405;-79
2022/04/19 02:36:53;;;;;;;8.80;5.20;;;;;;;2.37;67.37;96081.16;107842;1270;35850;-79
2022/04/19 02:39:24;;;;;;;9.10;6.00;;;;;;;2.30;67.58;96078.29;107831;1269;34202;-79
2022/04/19 02:41:55;;;;;;;10.10;6.30;;;;;;;2.26;67.85;96074.36;107788;1268;35096;-79
2022/04/19 02:44:29;;;;;;;10.20;6.10;;;;;;;2.24;68.07;96072.79;107801;1269;37169;-79
2022/04/19 02:47:03;;;;;;;9.30;5.70;;;;;;;2.20;68.62;96073.46;107635;1271;36384;-79
2022/04/19 02:49:34;;;;;;;9.30;5.40;;;;;;;2.15;68.71;96073.13;107715;1269;37194;-79
2022/04/19 02:52:05;;;;;;;11.70;4.60;;;;;;;2.15;69.31;96068.05;107771;1269;34579;-79
2022/04/19 02:54:37;;;;;;;8.60;4.20;;;;;;;2.15;69.90;96070.25;107686;1269;59113;-80
2022/04/19 02:57:09;;;;;;;6.30;3.90;;;;;;;2.15;69.98;96072.45;107820;1270;35994;-79
2022/04/19 02:59:42;;;;;;;8.50;4.00;;;;;;;2.14;70.27;96073.08;107797;1270;61591;-79
2022/04/19 03:02:18;;;;;;;8.40;5.50;;;;;;;2.13;70.19;96072.74;107754;1269;35917;-79
2022/04/19 03:04:49;;;;;;;7.90;4.80;;;;;;;2.14;70.29;96075.90;107596;1270;36142;-79
2022/04/19 03:07:19;;;;;;;8.70;4.80;;;;;;;2.14;70.49;96073.75;106409;1269;1765875;-79
2022/04/19 03:09:53;;;;;;;7.90;4.00;;;;;;;2.14;70.64;96072.17;107797;1270;35566;-79
2022/04/19 03:12:24;;;;;;;7.50;4.30;;;;;;;2.14;70.34;96073.23;107764;1270;34943;-79
2022/04/19 03:14:55;;;;;;;5.40;3.70;;;;;;;2.13;70.73;96071.95;107761;1269;38932;-78
2022/04/19 03:17:27;;;;;;;7.60;4.30;;;;;;;2.11;71.41;96074.23;107717;1270;41001;-79
2022/04/19 03:19:58;;;;;;;6.20;3.70;;;;;;;2.09;71.61;96074.66;107676;1270;35879;-79
2022/04/19 03:27:41;;;;;;;6.00;4.10;;;;;;;2.07;72.05;96075.56;107762;1269;36158;-79
2022/04/19 03:28:10;;;;;;;7.80;5.20;;;;;;;2.03;71.92;96078.28;107617;1270;36132;-79
2022/04/19 03:30:44;;;;;;;5.70;4.00;;;;;;;2.02;72.05;96076.50;107825;1270;30521;-79
2022/04/19 03:33:16;;;;;;;10.10;5.40;;;;;;;2.03;72.07;96077.23;107843;1270;34461;-79
2022/04/19 03:35:47;;;;;;;8.50;5.20;;;;;;;2.03;71.79;96079.48;107885;1269;35235;-79
2022/04/19 03:38:19;;;;;;;8.90;5.30;;;;;;;2.04;71.76;96076.61;107858;1269;32397;-79
2022/04/19 03:40:50;;;;;;;8.90;5.50;;;;;;;2.05;71.98;96076.21;107815;1269;34417;-79
2022/04/19 03:43:20;;;;;;;9.60;5.80;;;;;;;2.03;72.13;96077.92;107706;1269;38555;-79
2022/04/19 03:45:51;;;;;;;7.80;5.60;;;;;;;2.00;72.42;96077.29;107712;1270;35689;-78
2022/04/19 03:48:22;;;;;;;8.40;4.40;;;;;;;1.94;73.46;96080.20;107737;1269;42113;-79
2022/04/19 03:50:54;;;;;;;8.20;4.80;;;;;;;1.87;74.10;96080.52;107680;1269;34687;-78
2022/04/19 03:53:25;;;;;;;14.50;6.10;;;;;;;1.81;74.43;96077.02;107735;1270;39171;-79
2022/04/19 03:55:56;;;;;;;9.00;6.60;;;;;;;1.79;73.92;96082.88;107659;1270;43331;-79
2022/04/19 03:58:26;;;;;;;8.30;6.00;;;;;;;1.80;74.03;96078.92;107682;1270;34764;-79
2022/04/19 04:00:58;;;;;;;11.00;6.40;;;;;;;1.78;74.59;96080.00;107702;1269;36101;-79
2022/04/19 04:03:29;;;;;;;15.70;9.00;;;;;;;1.77;74.65;96082.17;107725;1271;31898;-79
2022/04/19 04:06:00;;;;;;;19.10;11.30;;;;;;;1.72;75.35;96081.11;107789;1270;32901;-79
2022/04/19 04:08:31;;;;;;;10.10;6.10;;;;;;;1.68;75.67;96082.13;107780;1270;31950;-79
2022/04/19 04:11:02;;;;;;;8.90;6.80;;;;;;;1.65;76.40;96080.48;107788;1270;33749;-79
2022/04/19 04:13:33;;;;;;;13.80;7.80;;;;;;;1.64;76.13;96078.23;107743;1270;35841;-80
2022/04/19 04:16:03;;;;;;;10.00;6.60;;;;;;;1.65;76.75;96079.70;107728;1270;37273;-79
2022/04/19 04:18:34;;;;;;;8.80;6.10;;;;;;;1.63;77.18;96077.80;107781;1269;38259;-79
2022/04/19 04:21:05;;;;;;;10.00;6.60;;;;;;;1.65;76.71;96080.14;107774;1269;38119;-79
2022/04/19 04:23:36;;;;;;;9.60;6.60;;;;;;;1.69;76.68;96079.33;107757;1269;35635;-77
2022/04/19 04:26:07;;;;;;;11.20;6.50;;;;;;;1.73;76.55;96079.14;107763;1270;33348;-77
2022/04/19 04:28:37;;;;;;;11.10;7.30;;;;;;;1.75;77.00;96083.82;107715;1270;41171;-76
2022/04/19 04:31:10;;;;;;;9.20;4.80;;;;;;;1.78;76.74;96086.36;107793;1270;31225;-76
2022/04/19 04:33:41;;;;;;;9.30;6.60;;;;;;;1.77;77.54;96079.63;107741;1269;58316;-77
2022/04/19 04:36:13;;;;;;;10.50;7.10;;;;;;;1.77;77.49;96080.39;107841;1270;36415;-77
2022/04/19 04:38:44;;;;;;;8.90;5.90;;;;;;;1.82;77.34;96078.28;107677;1270;38164;-77
2022/04/19 04:41:15;;;;;;;10.70;5.90;;;;;;;1.83;77.54;96073.39;107547;1270;245540;-77
2022/04/19 04:43:46;;;;;;;8.20;6.80;;;;;;;1.82;78.03;96073.63;107723;1269;105029;-77
2022/04/19 04:51:55;;;;;;;10.90;7.80;;;;;;;1.80;77.99;96077.52;107665;1270;80655;-77
2022/04/19 04:54:26;;;;;;;9.40;7.40;;;;;;;1.84;78.18;96079.17;107765;1270;73897;-77
2022/04/19 04:56:57;;;;;;;9.60;7.20;;;;;;;1.87;78.19;96082.92;107700;1270;83787;-77
2022/04/19 04:59:29;;;;;;;11.30;7.90;;;;;;;1.89;77.89;96083.64;107690;1270;47804;-77
2022/04/19 05:02:01;;;;;;;10.40;7.90;;;;;;;1.91;77.90;96080.90;107707;1270;72547;-77
2022/04/19 05:04:33;;;;;;;11.70;7.60;;;;;;;1.94;78.20;96080.32;106300;1270;1970643;-77
2022/04/19 05:07:05;;;;;;;12.50;8.70;;;;;;;1.95;77.99;96080.33;107733;1270;97226;-77
2022/04/19 05:09:37;;;;;;;12.40;8.10;;;;;;;2.00;77.78;96077.60;107568;1271;99955;-77
2022/04/19 05:12:09;;;;;;;10.80;8.30;;;;;;;2.05;77.76;96073.55;107584;1269;108001;-77
2022/04/19 05:14:41;;;;;;;11.70;8.20;;;;;;;2.15;77.68;96071.46;107832;1269;58843;-77
2022/04/19 05:17:11;;;;;;;12.30;8.00;;;;;;;2.19;77.46;96071.41;107665;1269;64431;-77
2022/04/19 05:19:42;;;;;;;11.40;8.60;;;;;;;2.26;77.51;96067.81;107629;1269;52401;-77
2022/04/19 05:22:15;;;;;;;12.90;8.70;;;;;;;2.34;77.51;96064.10;107473;1269;112552;-76
2022/04/19 05:24:49;;;;;;;12.60;9.20;;;;;;;2.41;77.55;96059.77;107859;1269;60330;-76
2022/04/19 05:27:21;;;;;;;11.50;8.40;;;;;;;2.49;77.44;96062.95;107667;1270;38881;-77
2022/04/19 05:29:54;;;;;;;12.20;8.50;;;;;;;2.59;77.41;96062.48;107888;1269;64177;-77
2022/04/19 05:32:28;;;;;;;11.20;7.80;;;;;;;2.66;77.36;96062.41;107745;1269;50334;-76
2022/04/19 05:35:02;;;;;;;11.20;6.40;;;;;;;2.76;77.08;96055.59;107768;1269;93848;-79
2022/04/19 05:37:37;;;;;;;9.30;7.40;;;;;;;2.79;77.32;96057.30;107610;1269;101377;-76
2022/04/19 05:40:14;;;;;;;12.20;8.50;;;;;;;2.80;77.10;96058.15;107604;1268;146220;-76
2022/04/19 05:42:48;;;;;;;13.10;7.70;;;;;;;2.83;77.39;96051.61;104642;1270;4094197;-76
2022/04/19 05:45:20;;;;;;;13.50;6.60;;;;;;;2.92;77.25;96050.30;107755;1270;94141;-77
2022/04/19 05:47:52;;;;;;;11.60;8.20;;;;;;;3.00;77.41;96054.34;107868;1270;37765;-77
2022/04/19 05:50:28;;;;;;;12.70;8.40;;;;;;;3.25;77.20;96058.17;107834;1270;53243;-76
2022/04/19 05:53:05;;;;;;;9.90;7.50;;;;;;;3.47;76.51;96061.93;105923;1270;1254633;-80
2022/04/19 05:55:42;;;;;;;10.70;8.00;;;;;;;3.74;75.85;96059.69;106247;1269;1981065;-80
2022/04/19 05:58:16;;;;;;;11.10;8.00;;;;;;;4.01;75.27;96058.41;107820;1270;58174;-80
2022/04/19 06:00:47;;;;;;;9.10;6.50;;;;;;;4.32;74.48;96054.56;107718;1271;30649;-79
2022/04/19 06:06:15;;;;;;;10.50;7.70;;;;;;;4.47;73.15;96050.91;107715;1269;90660;-79
2022/04/19 06:08:50;;;;;;;9.70;6.70;;;;;;;4.66;72.74;96048.89;107744;1269;61846;-79
2022/04/19 06:11:22;;;;;;;8.70;7.20;;;;;;;4.83;72.20;96045.73;107792;1270;74099;-79
2022/04/19 06:13:56;;;;;;;8.40;6.70;;;;;;;5.95;73.24;96048.14;107730;1270;90137;-80
2022/04/19 06:16:30;;;;;;;8.80;6.20;;;;;;;7.36;68.64;96044.06;107619;1270;104181;-79
2022/04/19 06:19:07;;;;;;;9.00;6.60;;;;;;;7.49;65.50;96047.95;107416;1271;103671;-80
2022/04/19 06:21:39;;;;;;;8.80;6.30;;;;;;;7.22;64.59;96052.98;107598;1269;152212;-80
2022/04/19 06:24:11;;;;;;;9.20;6.20;;;;;;;7.37;65.38;96053.50;107692;1269;91288;-79
2022/04/19 06:26:44;;;;;;;7.80;5.80;;;;;;;8.09;65.50;96051.27;107698;1269;83910;-81
2022/04/19 06:29:17;;;;;;;10.00;6.70;;;;;;;9.27;61.63;96047.92;107722;1269;86154;-80
2022/04/19 06:31:48;;;;;;;7.70;6.30;;;;;;;10.40;59.17;96045.66;107749;1269;95188;-81
2022/04/19 06:34:19;;;;;;;8.40;6.40;;;;;;;11.44;58.35;96046.75;107717;1270;111382;-81
2022/04/19 06:36:51;;;;;;;8.30;5.80;;;;;;;12.69;56.37;96041.45;106763;1269;1287789;-81
2022/04/19 06:39:25;;;;;;;7.10;5.70;;;;;;;13.61;53.09;96035.80;107572;1269;104823;-78
2022/04/19 06:41:57;;;;;;;6.30;5.20;;;;;;;14.45;51.62;96034.98;107541;1270;95858;-81
2022/04/19 06:44:31;;;;;;;6.90;5.40;;;;;;;15.11;49.71;96031.06;107655;1269;44404;-79
2022/04/19 06:47:04;;;;;;;8.50;5.20;;;;;;;15.40;46.30;96031.77;107600;1269;115045;-78
2022/04/19 06:49:37;;;;;;;6.70;5.20;;;;;;;15.92;47.40;96028.75;107664;1269;59333;-78
2022/04/19 06:52:09;;;;;;;7.80;6.20;;;;;;;16.69;43.33;96026.15;107642;1269;88233;-79
2022/04/19 06:54:41;;;;;;;6.70;5.40;;;;;;;16.58;43.44;96031.73;107579;1269;112715;-79
2022/04/19 06:57:12;;;;;;;7.00;5.30;;;;;;;17.07;41.47;96027.56;107583;1269;90189;-80
2022/04/19 06:59:43;;;;;;;8.70;5.60;;;;;;;17.21;40.07;96028.02;107647;1269;69507;-81
2022/04/19 07:02:14;;;;;;;6.10;5.20;;;;;;;17.14;38.52;96030.08;107624;1270;66691;-79
2022/04/19 07:04:45;;;;;;;6.50;5.60;;;;;;;17.18;38.11;96032.89;107675;1270;51582;-78
2022/04/19 07:07:17;;;;;;;6.10;5.00;;;;;;;17.23;37.91;96030.52;107636;1270;75990;-79
2022/04/19 07:09:49;;;;;;;6.40;5.50;;;;;;;17.37;36.75;96032.27;107802;1270;59792;-79
2022/04/19 07:12:22;;;;;;;6.90;5.60;;;;;;;17.64;36.10;96030.18;107790;1270;65229;-78
2022/04/19 07:14:53;;;;;;;6.20;5.40;;;;;;;17.40;35.60;96028.98;107690;1270;84909;-77
2022/04/19 07:17:25;;;;;;;7.90;6.10;;;;;;;17.40;35.83;96028.38;107589;1270;77158;-78
2022/04/19 07:28:36;;;;;;;6.40;5.40;;;;;;;18.66;32.28;96027.27;107711;1270;34810;-77
2022/04/19 07:31:08;;;;;;;6.10;5.50;;;;;;;18.41;31.51;96027.90;107700;1271;34726;-77
2022/04/19 07:33:40;;;;;;;6.90;5.70;;;;;;;18.55;32.78;96028.96;107697;1270;31176;-78
2022/04/19 07:36:11;;;;;;;6.10;4.90;;;;;;;19.42;32.18;96028.76;107680;1270;40869;-77
2022/04/19 07:38:42;;;;;;;6.70;6.00;;;;;;;19.31;32.18;96030.33;107676;1270;34269;-78
2022/04/19 07:41:13;;;;;;;7.20;5.60;;;;;;;18.43;32.05;96036.45;107704;1270;35040;-77
2022/04/19 07:43:46;;;;;;;8.20;6.00;;;;;;;18.23;32.18;96030.30;107692;1270;36309;-78
2022/04/19 07:46:20;;;;;;;6.40;5.50;;;;;;;17.96;32.68;96034.80;107689;1270;40866;-79
2022/04/19 07:48:51;;;;;;;7.00;5.50;;;;;;;18.40;32.96;96034.14;107649;1270;41444;-79
2022/04/19 07:51:22;;;;;;;8.70;5.40;;;;;;;17.52;33.02;96033.16;107633;1269;33018;-78
2022/04/19 07:53:54;;;;;;;7.50;6.10;;;;;;;16.15;32.53;96038.23;107659;1269;33919;-78
2022/04/19 07:56:25;;;;;;;9.30;5.80;;;;;;;13.74;34.41;96040.16;107608;1269;51003;-78
2022/04/19 07:58:56;;;;;;;9.50;6.30;;;;;;;12.55;36.39;96042.58;107529;1270;38406;-79
2022/04/19 08:01:27;;;;;;;9.20;6.30;;;;;;;11.73;37.50;96047.92;107643;1270;32961;-79
2022/04/19 08:03:58;;;;;;;8.50;5.60;;;;;;;11.08;38.73;96047.37;107659;1270;33827;-79
2022/04/19 08:06:30;;;;;;;9.00;6.70;;;;;;;10.67;39.57;96050.63;107675;1269;40312;-78
2022/04/19 08:09:04;;;;;;;10.60;6.70;;;;;;;10.10;40.25;96052.31;107696;1269;40330;-78
2022/04/19 08:11:35;;;;;;;10.10;6.50;;;;;;;9.54;41.45;96053.63;107659;1269;34658;-80
2022/04/19 08:14:07;;;;;;;9.70;6.60;;;;;;;9.27;42.51;96056.66;107632;1269;60147;-79
2022/04/19 08:16:38;;;;;;;11.60;6.00;;;;;;;8.96;43.23;96062.67;107588;1270;46654;-79
2022/04/19 08:19:08;;;;;;;8.40;6.70;;;;;;;8.64;43.74;96064.89;107679;1270;30618;-80
2022/04/19 08:21:40;;;;;;;13.00;9.50;;;;;;;8.47;44.31;96065.70;98441;1271;7149637;-79
2022/04/19 08:24:14;;;;;;;11.40;7.50;;;;;;;8.34;44.65;96068.36;107730;1270;38910;-79
2022/04/19 08:26:47;;;;;;;14.10;9.60;;;;;;;8.12;45.19;96068.29;107797;1270;38102;-80
2022/04/19 08:29:20;;;;;;;11.80;7.70;;;;;;;8.10;45.62;96074.65;107581;1271;76787;-81
2022/04/19 08:31:51;;;;;;;13.50;8.30;;;;;;;8.06;46.16;96075.80;107764;1270;37604;-80
2022/04/19 08:34:23;;;;;;;11.40;7.40;;;;;;;8.00;46.49;96076.20;107732;1270;35399;-77
2022/04/19 08:36:54;;;;;;;9.70;6.80;;;;;;;7.83;46.91;96077.67;107773;1270;32232;-80
2022/04/19 08:39:26;;;;;;;10.80;6.20;;;;;;;7.55;47.57;96076.04;107732;1270;57482;-80
2022/04/19 08:42:00;;;;;;;10.20;6.20;;;;;;;7.29;47.98;96077.90;107694;1270;34127;-80
2022/04/19 08:44:31;;;;;;;9.20;6.50;;;;;;;7.18;48.61;96078.15;107732;1270;36402;-80
2022/04/19 08:47:05;;;;;;;10.20;7.20;;;;;;;6.98;49.12;96082.58;107680;1270;33625;-80
2022/04/19 08:49:40;;;;;;;11.20;7.40;;;;;;;6.59;49.80;96089.08;107649;1270;33049;-80
2022/04/19 08:52:15;;;;;;;10.90;7.20;;;;;;;6.25;50.06;96090.31;107754;1270;35147;-80
2022/04/19 08:57:36;;;;;;;11.00;6.90;;;;;;;5.74;52.43;96097.10;107651;1271;64552;-79
2022/04/19 09:00:09;;;;;;;10.00;7.60;;;;;;;5.40;53.08;96104.72;107527;1271;43294;-81
2022/04/19 09:02:41;;;;;;;10.70;7.10;;;;;;;5.17;53.71;96108.25;107773;1269;32448;-80
2022/04/19 09:05:17;;;;;;;10.70;7.50;;;;;;;5.15;54.71;96111.92;107724;1270;49660;-80
2022/04/19 09:07:53;;;;;;;15.40;10.00;;;;;;;4.90;57.11;96118.45;107855;1270;41974;-80
2022/04/19 09:10:30;;;;;;;17.50;10.90;;;;;;;4.45;59.40;96125.45;107685;1271;35632;-79
2022/04/19 09:13:04;;;;;;;13.40;9.60;;;;;;;4.11;61.02;96134.24;107650;1270;38119;-79
2022/04/19 09:15:37;;;;;;;11.30;8.60;;;;;;;3.89;62.67;96134.55;107712;1270;38186;-80
2022/04/19 09:18:23;;;;;;;9.80;7.70;;;;;;;3.71;64.03;96134.36;107662;1270;71546;-80
2022/04/19 09:20:56;;;;;;;11.10;8.00;;;;;;;3.53;64.16;96132.28;107656;1270;44346;-80
2022/04/19 09:23:30;;;;;;;11.50;8.60;;;;;;;3.53;64.47;96134.64;107428;1271;62683;-80
2022/04/19 09:26:08;;;;;;;11.80;9.30;;;;;;;3.58;64.56;96139.57;107253;1270;60802;-80
2022/04/19 09:28:40;;;;;;;11.60;8.40;;;;;;;3.64;64.53;96141.73;109540;1269;44483;-80
2022/04/19 09:31:12;;;;;;;11.10;8.50;;;;;;;3.62;65.61;96142.48;107999;1270;34606;-80
2022/04/19 09:33:43;;;;;;;10.20;7.50;;;;;;;3.41;66.95;96140.15;107514;1270;40195;-82
2022/04/19 09:36:14;;;;;;;9.40;7.00;;;;;;;3.22;67.90;96143.48;107598;1270;31054;-79
2022/04/19 09:38:47;;;;;;;10.00;7.50;;;;;;;3.14;69.32;96144.84;107638;1270;46396;-79
2022/04/19 09:41:30;;;;;;;10.80;7.90;;;;;;;3.10;69.23;96145.44;107837;1271;33918;-76
2022/04/19 09:44:13;;;;;;;11.60;8.70;;;;;;;3.13;70.15;96145.56;107718;1269;50081;-78
2022/04/19 09:47:04;;;;;;;10.70;8.00;;;;;;;3.17;70.16;96144.36;107622;1269;40138;-78
2022/04/19 09:49:46;;;;;;;14.20;9.00;;;;;;;3.24;70.89;96146.07;107562;1270;56972;-80
2022/04/19 09:52:48;;;;;;;11.50;8.50;;;;;;;3.28;72.94;96144.61;107832;1269;32955;-80
2022/04/19 09:55:19;;;;;;;10.20;7.90;;;;;;;3.24;74.69;96146.55;107745;1269;36466;-80
2022/04/19 09:57:52;;;;;;;11.20;7.20;;;;;;;3.19;75.64;96142.24;107800;1271;49978;-80
2022/04/19 10:00:26;;;;;;;12.40;9.20;;;;;;;3.17;76.05;96141.11;107808;1271;32324;-78
2022/04/19 10:08:37;;;;;;;8.50;6.10;;;;;;;3.50;75.20;96139.27;107582;1271;36511;-80
2022/04/19 10:11:10;;;;;;;10.50;6.80;;;;;;;3.73;73.57;96147.55;107737;1271;39858;-80
2022/04/19 10:13:42;;;;;;;10.00;7.80;;;;;;;4.01;73.09;96147.31;107743;1271;38176;-80
2022/04/19 10:16:15;;;;;;;10.20;8.00;;;;;;;4.33;73.67;96143.66;107761;1271;32535;-80
2022/04/19 10:18:47;;;;;;;9.30;7.30;;;;;;;4.72;72.83;96139.72;107792;1269;33505;-80
2022/04/19 10:21:25;;;;;;;8.30;6.90;;;;;;;5.14;71.36;96134.83;107781;1270;36916;-80
2022/04/19 10:24:12;;;;;;;9.50;7.20;;;;;;;5.56;70.99;96138.44;107754;1271;36957;-79
2022/04/19 10:26:47;;;;;;;8.60;6.80;;;;;;;6.13;70.48;96133.83;107782;1271;31445;-80
2022/04/19 10:29:23;;;;;;;8.90;7.60;;;;;;;6.77;68.19;96131.94;107811;1269;36999;-79
2022/04/19 10:32:01;;;;;;;12.90;9.60;;;;;;;7.54;67.97;96133.95;107766;1270;35884;-79
2022/04/19 10:34:34;;;;;;;9.50;7.70;;;;;;;8.47;68.40;96133.81;107790;1271;33485;-79
2022/04/19 10:37:23;;;;;;;8.50;7.50;;;;;;;9.22;66.42;96129.55;107595;1271;40594;-79
2022/04/19 10:40:08;;;;;;;8.80;6.60;;;;;;;9.86;63.60;96124.69;107731;1271;35647;-80
2022/04/19 10:42:43;;;;;;;9.80;6.90;;;;;;;10.06;62.29;96125.52;106091;1271;2060124;-78
2022/04/19 10:45:28;;;;;;;9.80;7.30;;;;;;;10.33;61.83;96128.55;107703;1270;44080;-79
2022/04/19 10:48:10;;;;;;;8.30;7.10;;;;;;;10.52;60.89;96125.58;107653;1270;42613;-79
2022/04/19 10:50:44;;;;;;;8.50;7.20;;;;;;;10.65;59.80;96123.17;107643;1271;33164;-78
2022/04/19 10:53:15;;;;;;;9.90;8.10;;;;;;;10.75;58.81;96121.92;107582;1271;44350;-78
2022/04/19 10:56:05;;;;;;;9.30;7.50;;;;;;;10.74;56.13;96123.08;107613;1271;46949;-79
2022/04/19 10:58:44;;;;;;;10.60;8.00;;;;;;;10.38;54.35;96125.08;107578;1271;47784;-79
2022/04/19 11:04:40;;;;;;;10.90;9.60;;;;;;;10.62;56.89;96123.33;104440;1306;545276;-80
2022/04/19 11:07:38;;;;;;;15.60;11.60;;;;;;;10.85;55.69;96123.05;107557;1274;153431;-80
2022/04/19 11:10:13;;;;;;;10.20;8.60;;;;;;;11.00;55.73;96119.14;107574;1274;138777;-80
2022/04/19 11:13:00;;;;;;;11.00;9.40;;;;;;;10.95;55.21;96120.88;107084;1274;91785;-80
2022/04/19 11:15:41;;;;;;;16.40;10.50;;;;;;;10.78;55.05;96125.77;107837;1271;107420;-80
2022/04/19 11:18:25;;;;;;;10.70;8.00;;;;;;;10.45;53.54;96128.36;107600;1268;436364;-79
2022/04/19 11:20:59;;;;;;;9.50;7.80;;;;;;;9.42;51.98;96131.83;108090;1267;95967;-79
2022/04/19 11:23:44;;;;;;;11.50;9.00;;;;;;;8.80;52.34;96138.75;107943;1267;89182;-79
2022/04/19 11:26:43;;;;;;;11.10;8.70;;;;;;;8.39;53.90;96138.70;107426;1268;103375;-79
2022/04/19 11:29:20;;;;;;;13.30;8.70;;;;;;;8.33;54.19;96141.52;107763;1267;123363;-78
2022/04/19 11:32:07;;;;;;;12.40;9.30;;;;;;;8.23;54.42;96139.48;107914;1268;86619;-79
2022/04/19 11:34:39;;;;;;;12.00;9.40;;;;;;;8.48;55.89;96140.27;107741;1265;76594;-79
2022/04/19 11:37:11;;;;;;;10.00;8.30;;;;;;;8.51;53.37;96144.04;107940;1268;107434;-80
2022/04/19 11:48:34;;;;;;;11.10;9.00;;;;;;;7.71;55.98;96139.11;107712;1267;52444;-79
2022/04/19 11:51:12;;;;;;;11.70;9.40;;;;;;;8.55;56.58;96130.10;107795;1268;48936;-80
2022/04/19 11:53:44;;;;;;;11.20;8.90;;;;;;;9.35;55.57;96131.06;107898;1268;40758;-80
2022/04/19 11:56:16;;;;;;;11.10;8.70;;;;;;;9.38;53.61;96131.34;107925;1267;57566;-80
2022/04/19 11:58:54;;;;;;;11.40;8.40;;;;;;;9.28;52.80;96132.50;109639;1265;43889;-82
2022/04/19 12:01:25;;;;;;;9.80;8.00;;;;;;;8.76;52.51;96130.80;107916;1268;33079;-80
2022/04/19 12:03:57;;;;;;;10.80;8.30;;;;;;;8.58;54.40;96132.52;107731;1270;36808;-80
2022/04/19 12:06:30;;;;;;;10.90;8.50;;;;;;;8.47;53.96;96142.81;107853;1268;35981;-81
2022/04/19 12:09:04;;;;;;;10.90;8.60;;;;;;;8.29;54.74;96138.52;107779;1268;47178;-81
2022/04/19 12:11:35;;;;;;;11.70;8.50;;;;;;;8.55;54.32;96138.70;107771;1268;61291;-81
2022/04/19 12:14:09;;;;;;;10.50;8.90;;;;;;;8.73;54.08;96135.14;107886;1268;31069;-80
2022/04/19 12:16:42;;;;;;;10.30;8.10;;;;;;;8.88;52.61;96137.30;107936;1268;53822;-81
2022/04/19 12:19:16;;;;;;;10.70;8.30;;;;;;;8.84;52.03;96133.36;107828;1267;57491;-81
2022/04/19 12:21:48;;;;;;;10.30;8.40;;;;;;;8.96;53.41;96131.52;107819;1268;34051;-80
2022/04/19 12:24:24;;;;;;;12.40;8.70;;;;;;;9.51;53.74;96127.55;107844;1268;36684;-81
2022/04/19 12:27:07;;;;;;;8.90;7.10;;;;;;;9.75;51.97;96121.76;107871;1268;61165;-80
2022/04/19 12:29:54;;;;;;;8.70;7.00;;;;;;;9.67;51.21;96119.67;105445;1268;1965899;-81
2022/04/19 12:32:25;;;;;;;10.30;7.70;;;;;;;9.53;50.88;96117.09;107902;1268;62264;-79
2022/04/19 12:35:10;;;;;;;9.40;7.20;;;;;;;9.62;51.12;96116.84;107874;1268;48040;-81
2022/04/19 12:37:40;;;;;;;8.60;6.60;;;;;;;9.41;50.40;96119.98;108007;1267;43962;-80
2022/04/19 12:40:16;;;;;;;9.30;7.30;;;;;;;8.88;49.42;96124.88;107397;1266;201253;-80